Time;durP1;ratioP1;P1;durP2;ratioP2;P2;SDS_P1;SDS_P2;PMS_P1;PMS_P2;Temp;Humidity;BMP_temperature;BMP_pressure;BME280_temperature;BME280_humidity;BME280_pressure;Samples;Min_cycle;Max_cycle;Signal;HPM_P1;HPM_P2
2022/06/12 00:00:35;;;;;;;;;;;14.80;99.90;;;;;;5045822;28;19996;-69
2022/06/12 00:03:02;;;;;;;;;;;14.70;99.90;;;;;;5040566;28;19920;-69
2022/06/12 00:05:29;;;;;;;;;;;14.70;99.90;;;;;;5049857;28;19920;-69
2022/06/12 00:07:55;;;;;;;;;;;14.60;99.90;;;;;;5070030;28;19935;-68
2022/06/12 00:10:20;;;;;;;;;;;14.60;99.90;;;;;;5070123;28;20734;-68
2022/06/12 00:12:47;;;;;;;;;;;14.60;99.90;;;;;;5068055;28;19920;-69
2022/06/12 00:15:14;;;;;;;;;;;14.70;99.90;;;;;;5065411;28;19916;-68
2022/06/12 00:17:41;;;;;;;;;;;14.70;99.90;;;;;;5065940;28;20007;-69
2022/06/12 00:20:08;;;;;;;;;;;14.80;99.90;;;;;;5071318;28;19912;-70
2022/06/12 00:22:34;;;;;;;;;;;14.80;99.90;;;;;;5060004;28;19920;-71
2022/06/12 00:24:59;;;;;;;;;;;14.80;99.90;;;;;;5065274;28;20494;-69
2022/06/12 00:27:25;;;;;;;;;;;14.80;99.90;;;;;;5045109;28;19955;-70
2022/06/12 00:29:51;;;;;;;;;;;14.70;99.90;;;;;;5063229;28;19916;-69
2022/06/12 00:32:17;;;;;;;;;;;14.50;99.90;;;;;;5067001;28;20009;-69
2022/06/12 00:34:48;;;;;;;;;;;14.30;99.90;;;;;;5044996;28;19917;-69
2022/06/12 00:37:14;;;;;;;;;;;14.30;99.90;;;;;;5073098;28;20011;-69
2022/06/12 00:39:40;;;;;;;;;;;14.20;99.90;;;;;;5068881;28;19991;-69
2022/06/12 00:42:06;;;;;;;;;;;14.20;99.90;;;;;;5044080;28;19963;-68
2022/06/12 00:44:34;;;;;;;;;;;14.20;99.90;;;;;;5056782;28;20065;-69
2022/06/12 00:47:02;;;;;;;;;;;14.20;99.90;;;;;;5062965;28;19913;-70
2022/06/12 00:49:34;;;;;;;;;;;14.20;99.90;;;;;;5066731;28;19920;-70
2022/06/12 00:52:03;;;;;;;;;;;14.20;99.90;;;;;;5064957;28;19920;-68
2022/06/12 00:54:29;;;;;;;;;;;14.20;99.90;;;;;;5069235;28;19924;-68
2022/06/12 00:56:57;;;;;;;;;;;14.30;99.90;;;;;;5069796;28;20293;-70
2022/06/12 00:59:49;;;;;;;;;;;14.30;99.90;;;;;;5065844;28;20377;-69
2022/06/12 01:02:18;;;;;;;;;;;14.40;99.90;;;;;;5064269;28;19912;-69
2022/06/12 01:07:31;;;;;;;;;;;14.10;99.90;;;;;;5071015;28;19931;-69
2022/06/12 01:10:01;;;;;;;;;;;14.10;99.90;;;;;;5071840;28;19938;-69
2022/06/12 01:12:30;;;;;;;;;;;14.10;99.90;;;;;;5070795;28;19936;-69
2022/06/12 01:14:57;;;;;;;;;;;14.10;99.90;;;;;;5071184;28;20293;-69
2022/06/12 01:17:24;;;;;;;;;;;14.20;99.90;;;;;;5070829;28;20370;-69
2022/06/12 01:19:53;;;;;;;;;;;14.20;99.90;;;;;;5032165;28;20320;-69
2022/06/12 01:22:31;;;;;;;;;;;14.30;99.90;;;;;;5070859;28;20270;-70
2022/06/12 01:25:15;;;;;;;;;;;14.30;99.90;;;;;;5068884;28;19966;-70
2022/06/12 01:27:44;;;;;;;;;;;14.30;99.90;;;;;;5050909;28;19923;-69
2022/06/12 01:30:15;;;;;;;;;;;14.30;99.90;;;;;;5070584;28;19913;-69
2022/06/12 01:32:41;;;;;;;;;;;14.30;99.90;;;;;;5068423;28;19971;-69
2022/06/12 01:38:12;;;;;;;;;;;14.30;99.90;;;;;;5073311;28;20303;-69
2022/06/12 01:40:48;;;;;;;;;;;14.30;99.90;;;;;;5069608;28;19919;-68
2022/06/12 01:43:22;;;;;;;;;;;14.30;99.90;;;;;;5064511;28;19923;-68
2022/06/12 01:46:03;;;;;;;;;;;14.30;99.90;;;;;;5062393;28;19913;-70
2022/06/12 01:48:34;;;;;;;;;;;14.20;99.90;;;;;;5063972;28;19916;-69
2022/06/12 01:51:09;;;;;;;;;;;14.20;99.90;;;;;;5064425;28;19923;-69
2022/06/12 01:53:35;;;;;;;;;;;14.10;99.90;;;;;;5069166;28;19931;-70
2022/06/12 01:56:13;;;;;;;;;;;14.00;99.90;;;;;;5066262;28;20006;-69
2022/06/12 01:58:45;;;;;;;;;;;14.00;99.90;;;;;;5064791;28;19935;-69
2022/06/12 02:01:22;;;;;;;;;;;14.00;99.90;;;;;;5067954;28;19943;-69
2022/06/12 02:03:55;;;;;;;;;;;13.90;99.90;;;;;;5057207;28;19916;-69
2022/06/12 02:06:25;;;;;;;;;;;13.80;99.90;;;;;;5044238;28;19923;-69
2022/06/12 02:09:00;;;;;;;;;;;13.60;99.90;;;;;;5038361;28;19912;-69
2022/06/12 02:14:19;;;;;;;;;;;13.70;99.90;;;;;;5067418;28;19966;-70
2022/06/12 02:16:47;;;;;;;;;;;13.60;99.90;;;;;;5063608;28;19912;-70
2022/06/12 02:19:17;;;;;;;;;;;13.50;99.90;;;;;;5069317;28;19952;-71
2022/06/12 02:21:47;;;;;;;;;;;13.50;99.90;;;;;;5048120;28;19916;-68
2022/06/12 02:24:16;;;;;;;;;;;13.40;99.90;;;;;;5066727;28;19912;-69
2022/06/12 02:26:41;;;;;;;;;;;13.30;99.90;;;;;;5067601;28;19917;-69
2022/06/12 02:29:11;;;;;;;;;;;13.40;99.90;;;;;;5064724;28;19962;-68
2022/06/12 02:31:38;;;;;;;;;;;13.40;99.90;;;;;;5048491;28;19924;-69
2022/06/12 02:34:09;;;;;;;;;;;13.60;99.90;;;;;;5065632;28;20007;-70
2022/06/12 02:36:37;;;;;;;;;;;13.70;99.90;;;;;;5055788;28;20362;-69
2022/06/12 02:39:07;;;;;;;;;;;13.90;99.90;;;;;;5062712;28;20011;-68
2022/06/12 02:41:44;;;;;;;;;;;14.00;99.90;;;;;;5064677;28;19977;-69
2022/06/12 02:44:16;;;;;;;;;;;13.90;99.90;;;;;;5061975;28;20282;-69
2022/06/12 02:47:00;;;;;;;;;;;13.90;99.90;;;;;;5068728;28;19913;-68
2022/06/12 02:49:25;;;;;;;;;;;14.00;99.90;;;;;;5066645;28;20003;-69
2022/06/12 02:51:55;;;;;;;;;;;14.00;99.90;;;;;;5066801;28;20003;-70
2022/06/12 02:54:33;;;;;;;;;;;14.00;99.90;;;;;;5064385;28;19924;-69
2022/06/12 02:57:11;;;;;;;;;;;14.10;99.90;;;;;;5044690;28;20275;-69
2022/06/12 02:59:41;;;;;;;;;;;14.20;99.90;;;;;;5065396;28;19933;-68
2022/06/12 03:02:27;;;;;;;;;;;14.30;99.90;;;;;;5069465;28;19912;-69
2022/06/12 03:05:06;;;;;;;;;;;14.40;99.90;;;;;;5045318;28;19919;-69
2022/06/12 03:07:32;;;;;;;;;;;14.40;99.90;;;;;;5046187;28;20252;-69
2022/06/12 03:10:01;;;;;;;;;;;14.40;99.90;;;;;;5041464;28;19928;-69
2022/06/12 03:12:28;;;;;;;;;;;14.50;99.90;;;;;;5041605;28;19979;-69
2022/06/12 03:14:54;;;;;;;;;;;14.60;99.90;;;;;;5044013;28;19920;-69
2022/06/12 03:17:20;;;;;;;;;;;14.60;99.90;;;;;;5048857;28;19913;-68
2022/06/12 03:19:47;;;;;;;;;;;14.60;99.90;;;;;;5046001;28;19920;-69
2022/06/12 03:22:12;;;;;;;;;;;14.60;99.90;;;;;;5048556;28;19913;-68
2022/06/12 03:24:41;;;;;;;;;;;14.50;99.90;;;;;;5044914;28;19931;-69
2022/06/12 03:27:21;;;;;;;;;;;14.50;99.90;;;;;;5035296;28;19916;-69
2022/06/12 03:29:53;;;;;;;;;;;14.30;99.90;;;;;;5040289;28;19913;-69
2022/06/12 03:32:22;;;;;;;;;;;14.20;99.90;;;;;;5042813;28;19974;-69
2022/06/12 03:34:57;;;;;;;;;;;14.10;99.90;;;;;;5048460;28;19924;-69
2022/06/12 03:37:29;;;;;;;;;;;14.10;99.90;;;;;;5049044;28;19913;-69
2022/06/12 03:40:02;;;;;;;;;;;14.00;99.90;;;;;;5045714;28;19924;-69
2022/06/12 03:42:28;;;;;;;;;;;14.10;99.90;;;;;;5045645;28;19912;-70
2022/06/12 03:44:58;;;;;;;;;;;14.20;99.90;;;;;;5046965;28;20330;-68
2022/06/12 03:47:23;;;;;;;;;;;14.10;99.90;;;;;;5046338;28;19948;-70
2022/06/12 03:49:49;;;;;;;;;;;14.00;99.90;;;;;;5047982;28;19959;-69
2022/06/12 03:52:19;;;;;;;;;;;14.00;99.90;;;;;;5047780;28;20008;-68
2022/06/12 03:54:44;;;;;;;;;;;13.90;99.90;;;;;;5043608;28;20383;-69
2022/06/12 04:00:23;;;;;;;;;;;14.00;99.90;;;;;;5046714;28;19940;-70
2022/06/12 04:02:55;;;;;;;;;;;13.90;99.90;;;;;;5040535;28;19920;-70
2022/06/12 04:05:23;;;;;;;;;;;13.90;99.90;;;;;;5047008;28;20773;-69
2022/06/12 04:07:50;;;;;;;;;;;13.90;99.90;;;;;;5057096;28;19967;-70
2022/06/12 04:10:21;;;;;;;;;;;13.80;99.90;;;;;;5068531;28;20703;-69
2022/06/12 04:12:50;;;;;;;;;;;13.70;99.90;;;;;;5064163;28;19921;-70
2022/06/12 04:15:19;;;;;;;;;;;13.60;99.90;;;;;;5066427;28;19916;-69
2022/06/12 04:17:45;;;;;;;;;;;13.50;99.90;;;;;;5041944;28;20015;-69
2022/06/12 04:20:25;;;;;;;;;;;13.60;99.90;;;;;;5065483;28;20007;-68
2022/06/12 04:22:58;;;;;;;;;;;13.50;99.90;;;;;;5047368;28;19916;-70
2022/06/12 04:25:41;;;;;;;;;;;13.50;99.90;;;;;;5068004;28;20232;-70
2022/06/12 04:28:22;;;;;;;;;;;13.60;99.90;;;;;;5065529;28;19917;-68
2022/06/12 04:30:47;;;;;;;;;;;13.70;99.90;;;;;;5064217;28;19917;-70
2022/06/12 04:33:32;;;;;;;;;;;13.70;99.90;;;;;;5043178;28;19923;-70
2022/06/12 04:35:58;;;;;;;;;;;13.80;99.90;;;;;;5047759;28;19937;-69
2022/06/12 04:38:25;;;;;;;;;;;13.90;99.90;;;;;;5064374;28;19912;-69
2022/06/12 04:40:51;;;;;;;;;;;13.80;99.90;;;;;;5077495;28;20344;-69
2022/06/12 04:43:17;;;;;;;;;;;13.70;99.90;;;;;;5071739;28;20451;-69
2022/06/12 04:45:43;;;;;;;;;;;13.60;99.90;;;;;;5068235;28;19913;-69
2022/06/12 04:48:12;;;;;;;;;;;13.50;99.90;;;;;;5069089;28;19920;-69
2022/06/12 04:50:38;;;;;;;;;;;13.60;99.90;;;;;;5069005;28;19920;-69
2022/06/12 04:53:03;;;;;;;;;;;13.70;99.90;;;;;;5068764;28;20436;-68
2022/06/12 04:55:32;;;;;;;;;;;13.70;99.90;;;;;;5069087;28;19960;-69
2022/06/12 04:57:58;;;;;;;;;;;13.70;99.90;;;;;;5068233;28;19920;-69
2022/06/12 05:00:24;;;;;;;;;;;13.90;99.90;;;;;;5070384;28;19912;-69
2022/06/12 05:02:49;;;;;;;;;;;14.10;99.90;;;;;;5076500;28;19920;-69
2022/06/12 05:05:15;;;;;;;;;;;14.30;99.90;;;;;;5048122;28;20050;-69
2022/06/12 05:07:40;;;;;;;;;;;14.50;99.90;;;;;;5032369;28;20295;-69
2022/06/12 05:10:06;;;;;;;;;;;14.60;99.90;;;;;;5073056;28;19925;-70
2022/06/12 05:12:32;;;;;;;;;;;14.70;99.90;;;;;;5072419;28;19923;-69
2022/06/12 05:14:58;;;;;;;;;;;14.70;99.90;;;;;;5070373;28;19916;-70
2022/06/12 05:17:23;;;;;;;;;;;14.80;99.90;;;;;;5069523;28;19920;-69
2022/06/12 05:19:49;;;;;;;;;;;14.90;99.90;;;;;;5067043;28;19947;-69
2022/06/12 05:22:15;;;;;;;;;;;14.90;99.90;;;;;;5069953;28;19920;-70
2022/06/12 05:24:41;;;;;;;;;;;14.80;99.90;;;;;;5068899;28;19927;-70
2022/06/12 05:27:08;;;;;;;;;;;14.90;99.90;;;;;;5073792;28;19913;-69
2022/06/12 05:29:35;;;;;;;;;;;14.90;99.90;;;;;;5049223;28;19999;-69
2022/06/12 05:32:02;;;;;;;;;;;14.90;99.90;;;;;;5064515;28;19916;-69
2022/06/12 05:34:28;;;;;;;;;;;15.00;99.90;;;;;;5066637;28;19947;-69
2022/06/12 05:36:53;;;;;;;;;;;15.00;99.90;;;;;;5050386;28;20362;-69
2022/06/12 05:39:19;;;;;;;;;;;15.10;99.90;;;;;;5063183;28;19913;-69
2022/06/12 05:41:45;;;;;;;;;;;15.20;99.90;;;;;;5067620;28;19927;-69
2022/06/12 05:44:12;;;;;;;;;;;15.20;99.90;;;;;;5071104;28;19912;-69
2022/06/12 05:46:38;;;;;;;;;;;15.40;99.90;;;;;;5072365;28;19916;-71
2022/06/12 05:49:03;;;;;;;;;;;15.40;99.90;;;;;;5065431;28;19980;-69
2022/06/12 05:51:30;;;;;;;;;;;15.50;99.90;;;;;;5064048;28;20286;-69
2022/06/12 05:53:55;;;;;;;;;;;15.60;99.90;;;;;;5064751;28;19917;-70
2022/06/12 05:56:23;;;;;;;;;;;15.80;99.90;;;;;;5065571;28;19912;-69
2022/06/12 05:58:48;;;;;;;;;;;15.80;99.90;;;;;;5066088;28;19924;-69
2022/06/12 06:01:16;;;;;;;;;;;15.80;99.90;;;;;;5067306;28;19913;-71
2022/06/12 06:03:41;;;;;;;;;;;15.90;99.90;;;;;;5048695;28;20011;-71
2022/06/12 06:06:08;;;;;;;;;;;15.80;99.90;;;;;;5064363;28;20004;-70
2022/06/12 06:08:34;;;;;;;;;;;15.90;99.90;;;;;;5069740;28;19924;-70
2022/06/12 06:11:00;;;;;;;;;;;15.80;99.90;;;;;;5064459;28;19913;-72
2022/06/12 06:13:26;;;;;;;;;;;15.90;99.90;;;;;;5046959;28;19955;-69
2022/06/12 06:15:51;;;;;;;;;;;15.90;99.90;;;;;;5068392;28;19917;-68
2022/06/12 06:18:17;;;;;;;;;;;15.90;99.90;;;;;;5065348;28;19917;-70
2022/06/12 06:20:43;;;;;;;;;;;16.10;99.90;;;;;;5065827;28;20016;-69
2022/06/12 06:23:09;;;;;;;;;;;16.10;99.90;;;;;;5066867;28;20305;-70
2022/06/12 06:25:35;;;;;;;;;;;16.10;99.90;;;;;;5065463;28;19918;-71
2022/06/12 06:28:01;;;;;;;;;;;16.00;99.90;;;;;;5067808;28;20397;-70
2022/06/12 06:30:27;;;;;;;;;;;16.00;99.90;;;;;;5063558;28;19939;-69
2022/06/12 06:32:53;;;;;;;;;;;16.00;99.90;;;;;;5063986;28;19931;-70
2022/06/12 06:35:19;;;;;;;;;;;16.10;99.90;;;;;;5067410;28;19916;-70
2022/06/12 06:37:45;;;;;;;;;;;16.10;99.90;;;;;;5064616;28;19912;-71
2022/06/12 06:40:12;;;;;;;;;;;16.10;99.90;;;;;;5066873;28;19912;-69
2022/06/12 06:42:37;;;;;;;;;;;16.10;99.90;;;;;;5066845;28;20358;-69
2022/06/12 06:47:48;;;;;;;;;;;16.20;99.90;;;;;;5069615;28;19920;-69
2022/06/12 06:50:15;;;;;;;;;;;16.00;99.90;;;;;;5063821;28;20370;-70
2022/06/12 06:52:40;;;;;;;;;;;16.00;99.90;;;;;;5060476;28;19956;-69
2022/06/12 06:55:07;;;;;;;;;;;16.00;99.90;;;;;;5045132;28;19975;-70
2022/06/12 06:57:35;;;;;;;;;;;15.90;99.90;;;;;;5067707;28;20007;-70
2022/06/12 07:00:00;;;;;;;;;;;15.80;99.90;;;;;;5064206;28;20489;-69
2022/06/12 07:02:26;;;;;;;;;;;15.70;99.90;;;;;;5051703;28;20480;-69
2022/06/12 07:04:51;;;;;;;;;;;15.60;99.90;;;;;;5066447;28;20367;-70
2022/06/12 07:07:17;;;;;;;;;;;15.70;99.90;;;;;;5042777;28;20418;-71
2022/06/12 07:09:42;;;;;;;;;;;15.80;99.90;;;;;;5067280;28;19920;-70
2022/06/12 07:12:08;;;;;;;;;;;15.90;99.90;;;;;;5061251;28;20473;-69
2022/06/12 07:14:34;;;;;;;;;;;16.00;99.90;;;;;;5061733;28;19925;-68
2022/06/12 07:17:00;;;;;;;;;;;16.10;99.90;;;;;;5058134;28;19913;-69
2022/06/12 07:19:26;;;;;;;;;;;16.20;99.90;;;;;;5063746;28;19912;-69
2022/06/12 07:21:52;;;;;;;;;;;16.20;99.90;;;;;;5044315;28;19947;-69
2022/06/12 07:24:18;;;;;;;;;;;16.30;99.90;;;;;;5072467;28;20322;-70
2022/06/12 07:26:45;;;;;;;;;;;16.40;99.90;;;;;;5052812;28;19917;-68
2022/06/12 07:29:11;;;;;;;;;;;16.50;99.90;;;;;;5059717;28;20262;-70
2022/06/12 07:31:37;;;;;;;;;;;16.60;99.90;;;;;;5055817;28;19949;-67
2022/06/12 07:34:03;;;;;;;;;;;16.30;99.90;;;;;;5065171;28;19917;-69
2022/06/12 07:36:29;;;;;;;;;;;16.20;99.90;;;;;;5057286;28;19921;-66
2022/06/12 07:38:55;;;;;;;;;;;16.30;99.90;;;;;;5067841;28;20007;-67
2022/06/12 07:41:20;;;;;;;;;;;16.40;99.90;;;;;;5069169;28;20941;-68
2022/06/12 07:43:46;;;;;;;;;;;16.50;99.90;;;;;;5054288;28;19912;-68
2022/06/12 07:46:14;;;;;;;;;;;16.60;99.90;;;;;;5061692;28;19917;-69
2022/06/12 07:48:40;;;;;;;;;;;16.80;99.90;;;;;;5061439;28;19919;-68
2022/06/12 07:51:08;;;;;;;;;;;16.90;99.90;;;;;;5062416;28;19919;-68
2022/06/12 07:53:34;;;;;;;;;;;16.80;99.90;;;;;;5048008;28;19999;-69
2022/06/12 07:56:01;;;;;;;;;;;16.80;99.90;;;;;;5052097;28;19969;-68
2022/06/12 07:58:27;;;;;;;;;;;16.60;99.90;;;;;;5073795;28;19916;-67
2022/06/12 08:00:54;;;;;;;;;;;16.70;99.90;;;;;;5062631;28;20344;-68
2022/06/12 08:03:21;;;;;;;;;;;17.00;99.90;;;;;;5066055;28;19917;-67
2022/06/12 08:05:46;;;;;;;;;;;17.10;99.90;;;;;;5067023;28;20123;-68
2022/06/12 08:08:12;;;;;;;;;;;17.20;99.90;;;;;;5068210;28;20011;-67
2022/06/12 08:10:37;;;;;;;;;;;17.20;99.90;;;;;;5054027;28;20394;-68
2022/06/12 08:13:04;;;;;;;;;;;17.20;99.90;;;;;;5063472;28;19920;-68
2022/06/12 08:15:30;;;;;;;;;;;17.00;99.90;;;;;;5075735;28;19921;-67
2022/06/12 08:17:59;;;;;;;;;;;16.90;99.90;;;;;;5066429;28;19987;-68
2022/06/12 08:20:27;;;;;;;;;;;16.80;99.90;;;;;;5076077;28;20338;-69
2022/06/12 08:22:57;;;;;;;;;;;16.80;99.90;;;;;;5064201;28;19955;-68
2022/06/12 08:25:23;;;;;;;;;;;16.70;99.90;;;;;;5061261;28;19913;-67
2022/06/12 08:27:49;;;;;;;;;;;16.70;99.90;;;;;;5073862;28;20004;-67
2022/06/12 08:30:15;;;;;;;;;;;16.90;99.90;;;;;;5067538;28;19935;-68
2022/06/12 08:32:42;;;;;;;;;;;17.00;99.90;;;;;;5074327;28;20358;-67
2022/06/12 08:35:16;;;;;;;;;;;16.90;99.90;;;;;;5070789;28;19959;-69
2022/06/12 08:37:42;;;;;;;;;;;17.00;99.90;;;;;;5063371;28;19967;-69
2022/06/12 08:40:11;;;;;;;;;;;17.10;99.90;;;;;;5066445;28;19916;-70
2022/06/12 08:42:41;;;;;;;;;;;17.00;99.90;;;;;;5071452;28;20262;-69
2022/06/12 08:45:07;;;;;;;;;;;17.10;99.90;;;;;;5065944;28;20296;-70
2022/06/12 08:47:54;;;;;;;;;;;17.30;99.90;;;;;;5066788;28;19913;-68
2022/06/12 08:50:26;;;;;;;;;;;17.30;99.90;;;;;;5059075;28;19967;-69
2022/06/12 08:53:11;;;;;;;;;;;17.30;99.90;;;;;;5065893;28;19924;-69
2022/06/12 08:55:46;;;;;;;;;;;17.30;99.90;;;;;;5055359;28;20488;-69
2022/06/12 08:58:25;;;;;;;;;;;17.30;99.90;;;;;;5059788;28;19959;-69
2022/06/12 09:00:51;;;;;;;;;;;17.40;99.90;;;;;;5061375;28;19923;-68
2022/06/12 09:03:20;;;;;;;;;;;17.30;99.90;;;;;;5072412;28;19912;-70
2022/06/12 09:05:51;;;;;;;;;;;17.10;99.90;;;;;;5069678;28;19913;-69
2022/06/12 09:08:31;;;;;;;;;;;17.10;99.90;;;;;;5070929;28;20038;-69
2022/06/12 09:11:15;;;;;;;;;;;17.50;99.90;;;;;;5069447;28;19920;-69
2022/06/12 09:13:49;;;;;;;;;;;17.70;99.90;;;;;;5066106;28;19995;-69
2022/06/12 09:16:17;;;;;;;;;;;17.70;99.90;;;;;;5069738;28;19916;-70
2022/06/12 09:19:03;;;;;;;;;;;18.00;99.90;;;;;;5045176;28;19913;-69
2022/06/12 09:21:34;;;;;;;;;;;18.00;99.90;;;;;;5053782;28;19955;-69
2022/06/12 09:24:16;;;;;;;;;;;18.10;99.20;;;;;;5069014;28;20369;-74
2022/06/12 09:27:04;;;;;;;;;;;18.10;98.00;;;;;;5043742;28;19938;-70
2022/06/12 09:29:46;;;;;;;;;;;17.90;99.40;;;;;;5072817;28;19926;-69
2022/06/12 09:32:35;;;;;;;;;;;17.90;99.20;;;;;;5067745;28;20321;-69
2022/06/12 09:35:06;;;;;;;;;;;17.90;98.80;;;;;;5070469;28;20371;-69
2022/06/12 09:40:41;;;;;;;;;;;17.80;97.40;;;;;;5066469;28;19916;-68
2022/06/12 09:43:27;;;;;;;;;;;17.70;96.30;;;;;;5070361;28;19960;-68
2022/06/12 09:45:53;;;;;;;;;;;17.70;95.80;;;;;;5067224;28;20373;-70
2022/06/12 09:48:42;;;;;;;;;;;17.90;94.60;;;;;;5070584;28;20383;-69
2022/06/12 09:51:20;;;;;;;;;;;18.00;94.40;;;;;;5045003;28;20383;-69
2022/06/12 09:53:48;;;;;;;;;;;18.10;93.70;;;;;;5070105;28;19928;-70
2022/06/12 09:56:16;;;;;;;;;;;18.20;93.40;;;;;;5070636;28;19912;-69
2022/06/12 09:58:57;;;;;;;;;;;18.30;93.50;;;;;;5068354;28;19920;-70
2022/06/12 10:01:25;;;;;;;;;;;18.40;93.90;;;;;;5047261;28;20314;-70
2022/06/12 10:03:54;;;;;;;;;;;18.70;93.80;;;;;;5067550;28;19913;-69
2022/06/12 10:06:26;;;;;;;;;;;18.80;93.70;;;;;;5051962;28;19913;-69
2022/06/12 10:09:01;;;;;;;;;;;18.80;93.10;;;;;;5058865;28;20030;-69
2022/06/12 10:11:46;;;;;;;;;;;18.70;93.10;;;;;;5059177;28;19916;-68
2022/06/12 10:14:15;;;;;;;;;;;18.60;92.80;;;;;;5050824;28;19927;-68
2022/06/12 10:16:53;;;;;;;;;;;18.60;92.70;;;;;;5057109;28;19941;-68
2022/06/12 10:19:38;;;;;;;;;;;18.40;92.30;;;;;;5054899;28;19919;-68
2022/06/12 10:22:07;;;;;;;;;;;18.50;92.10;;;;;;5068022;28;20003;-68
2022/06/12 10:24:32;;;;;;;;;;;18.70;91.90;;;;;;5071742;28;20218;-68
2022/06/12 10:27:07;;;;;;;;;;;18.80;91.50;;;;;;5076656;28;19966;-67
2022/06/12 10:29:41;;;;;;;;;;;18.90;91.20;;;;;;5067435;28;19913;-67
2022/06/12 10:32:10;;;;;;;;;;;18.90;91.50;;;;;;5059679;28;19947;-68
2022/06/12 10:34:36;;;;;;;;;;;18.80;92.10;;;;;;5050158;28;19917;-68
2022/06/12 10:37:16;;;;;;;;;;;18.70;92.20;;;;;;5065000;28;20039;-68
2022/06/12 10:39:42;;;;;;;;;;;18.60;93.10;;;;;;5044167;28;19999;-68
2022/06/12 10:42:27;;;;;;;;;;;18.70;93.50;;;;;;5065198;28;20279;-68
2022/06/12 10:44:54;;;;;;;;;;;18.90;93.20;;;;;;5065595;28;19917;-68
2022/06/12 10:47:30;;;;;;;;;;;19.20;92.50;;;;;;5065523;28;19940;-68
2022/06/12 10:50:14;;;;;;;;;;;19.10;92.40;;;;;;5057337;28;20271;-67
2022/06/12 10:53:12;;;;;;;;;;;18.90;93.50;;;;;;5059638;28;19916;-68
2022/06/12 10:55:57;;;;;;;;;;;19.00;93.40;;;;;;5028903;28;19920;-69
2022/06/12 10:58:41;;;;;;;;;;;19.00;93.20;;;;;;5067046;28;20376;-70
2022/06/12 11:01:15;;;;;;;;;;;19.20;93.00;;;;;;5060862;28;20321;-69
2022/06/12 11:03:50;;;;;;;;;;;19.00;92.90;;;;;;5055672;28;19913;-68
2022/06/12 11:06:20;;;;;;;;;;;19.00;93.00;;;;;;5040710;28;20007;-69
2022/06/12 11:09:10;;;;;;;;;;;19.20;92.80;;;;;;5067714;28;20355;-70
2022/06/12 11:11:57;;;;;;;;;;;19.30;92.30;;;;;;5059875;28;20255;-69
2022/06/12 11:14:23;;;;;;;;;;;19.40;92.60;;;;;;5045124;28;19924;-69
2022/06/12 11:16:57;;;;;;;;;;;19.10;92.90;;;;;;5054763;28;19927;-69
2022/06/12 11:19:38;;;;;;;;;;;19.20;92.90;;;;;;5061154;28;19913;-68
2022/06/12 11:22:06;;;;;;;;;;;19.30;92.10;;;;;;5065255;28;19998;-69
2022/06/12 11:24:52;;;;;;;;;;;19.20;92.00;;;;;;5061404;28;20092;-68
2022/06/12 11:27:29;;;;;;;;;;;19.10;90.90;;;;;;5036197;28;19920;-68
2022/06/12 11:30:01;;;;;;;;;;;18.80;91.20;;;;;;5066094;28;19971;-68
2022/06/12 11:32:37;;;;;;;;;;;18.80;91.60;;;;;;5069808;28;19923;-69
2022/06/12 11:35:05;;;;;;;;;;;19.00;91.50;;;;;;5053185;28;19923;-67
2022/06/12 11:37:49;;;;;;;;;;;18.80;91.50;;;;;;5069764;28;20315;-68
2022/06/12 11:40:34;;;;;;;;;;;18.90;91.40;;;;;;5039383;28;21629;-68
2022/06/12 11:43:06;;;;;;;;;;;18.80;91.40;;;;;;5063828;28;20007;-68
2022/06/12 11:45:50;;;;;;;;;;;18.70;92.10;;;;;;5068700;28;19920;-67
2022/06/12 11:48:33;;;;;;;;;;;19.00;91.60;;;;;;5070343;28;19920;-68
2022/06/12 11:51:10;;;;;;;;;;;19.10;91.30;;;;;;5063135;28;20011;-67
2022/06/12 11:53:54;;;;;;;;;;;19.10;90.50;;;;;;5052444;28;20361;-67
2022/06/12 11:56:32;;;;;;;;;;;19.10;90.90;;;;;;5057715;28;20051;-68
2022/06/12 11:59:04;;;;;;;;;;;19.20;90.60;;;;;;5043647;28;19916;-68
2022/06/12 12:01:31;;;;;;;;;;;18.90;91.30;;;;;;5032482;28;19996;-71
2022/06/12 12:04:04;;;;;;;;;;;18.90;91.50;;;;;;5065535;28;19951;-69
2022/06/12 12:06:48;;;;;;;;;;;18.90;91.00;;;;;;5066794;28;19924;-67
2022/06/12 12:09:22;;;;;;;;;;;19.20;90.70;;;;;;5063140;28;19939;-69
2022/06/12 12:11:50;;;;;;;;;;;19.40;90.50;;;;;;5065810;28;20418;-70
2022/06/12 12:14:18;;;;;;;;;;;19.30;90.80;;;;;;5052016;28;20244;-69
2022/06/12 12:16:47;;;;;;;;;;;19.40;91.00;;;;;;5052633;28;19958;-70
2022/06/12 12:19:22;;;;;;;;;;;19.70;90.50;;;;;;5069264;28;20371;-71
2022/06/12 12:21:50;;;;;;;;;;;19.70;90.40;;;;;;5065334;28;19912;-69
2022/06/12 12:24:22;;;;;;;;;;;19.60;90.00;;;;;;5072798;28;19939;-69
2022/06/12 12:26:48;;;;;;;;;;;19.70;90.20;;;;;;5066273;28;20018;-68
2022/06/12 12:29:17;;;;;;;;;;;19.70;90.60;;;;;;5046165;28;20351;-68
2022/06/12 12:31:45;;;;;;;;;;;19.60;90.90;;;;;;5062912;28;20279;-68
2022/06/12 12:34:11;;;;;;;;;;;19.70;91.00;;;;;;5057857;28;20014;-69
2022/06/12 12:42:39;;;;;;;;;;;20.00;90.20;;;;;;5077846;28;20042;-70
2022/06/12 12:45:13;;;;;;;;;;;19.70;90.10;;;;;;5044835;28;19913;-67
2022/06/12 12:47:39;;;;;;;;;;;19.70;90.40;;;;;;5064240;28;19916;-66
2022/06/12 12:50:18;;;;;;;;;;;19.90;90.50;;;;;;5065128;28;19920;-67
2022/06/12 12:52:50;;;;;;;;;;;20.20;90.00;;;;;;5066071;28;20263;-67
2022/06/12 12:55:38;;;;;;;;;;;20.10;90.20;;;;;;5055969;28;19916;-68
2022/06/12 12:58:15;;;;;;;;;;;20.10;90.20;;;;;;5072235;28;19921;-68
2022/06/12 13:00:42;;;;;;;;;;;20.10;90.80;;;;;;5071714;28;19935;-68
2022/06/12 13:03:12;;;;;;;;;;;19.90;90.90;;;;;;5073739;28;19912;-70
2022/06/12 13:05:51;;;;;;;;;;;19.80;91.20;;;;;;5071409;28;20114;-68
2022/06/12 13:08:30;;;;;;;;;;;19.90;91.30;;;;;;5049978;28;19920;-69
2022/06/12 13:11:14;;;;;;;;;;;19.90;91.20;;;;;;5066675;28;19962;-67
2022/06/12 13:13:49;;;;;;;;;;;19.60;91.10;;;;;;5070440;28;19917;-67
2022/06/12 13:16:15;;;;;;;;;;;19.20;91.30;;;;;;5061544;28;19970;-67
2022/06/12 13:19:16;;;;;;;;;;;19.10;92.00;;;;;;5064392;28;19984;-68
2022/06/12 13:21:57;;;;;;;;;;;19.20;91.20;;;;;;5003659;28;20623;-65
2022/06/12 13:24:42;;;;;;;;;;;19.30;91.80;;;;;;5057428;28;19920;-67
2022/06/12 13:27:20;;;;;;;;;;;19.50;91.90;;;;;;5047543;28;19992;-68
2022/06/12 13:29:46;;;;;;;;;;;19.80;91.00;;;;;;5068769;28;19923;-69
2022/06/12 13:32:21;;;;;;;;;;;19.90;90.80;;;;;;5070645;28;19916;-70
2022/06/12 13:35:03;;;;;;;;;;;20.10;90.80;;;;;;5065724;28;19916;-69
2022/06/12 13:37:31;;;;;;;;;;;20.20;90.20;;;;;;5068030;28;19920;-68
2022/06/12 13:39:56;;;;;;;;;;;20.20;90.30;;;;;;5065164;28;19916;-68
2022/06/12 13:42:26;;;;;;;;;;;20.20;90.30;;;;;;5086472;28;19912;-67
2022/06/12 13:44:52;;;;;;;;;;;19.70;90.80;;;;;;5080235;28;20307;-68
2022/06/12 13:47:18;;;;;;;;;;;19.40;91.40;;;;;;5070024;28;20329;-67
2022/06/12 13:50:04;;;;;;;;;;;19.50;91.40;;;;;;5052882;28;20234;-67
2022/06/12 13:52:45;;;;;;;;;;;19.80;90.90;;;;;;5066490;28;19917;-67
2022/06/12 13:55:29;;;;;;;;;;;20.00;91.10;;;;;;5049251;28;20007;-69
2022/06/12 13:57:55;;;;;;;;;;;19.70;90.80;;;;;;5067401;28;21551;-68
2022/06/12 14:00:21;;;;;;;;;;;19.70;90.80;;;;;;5068961;28;19912;-69
2022/06/12 14:02:50;;;;;;;;;;;19.70;90.80;;;;;;5061251;28;19919;-70
2022/06/12 14:05:18;;;;;;;;;;;19.80;90.40;;;;;;5067225;28;19976;-70
2022/06/12 14:07:45;;;;;;;;;;;19.70;90.20;;;;;;5071206;28;19927;-69
2022/06/12 14:10:19;;;;;;;;;;;19.60;90.40;;;;;;5070464;28;19920;-68
2022/06/12 14:15:26;;;;;;;;;;;19.40;91.40;;;;;;3988645;22;19938;-79
2022/06/12 14:17:53;;;;;;;;;;;19.30;91.90;;;;;;5083415;28;19928;-80
2022/06/12 14:20:19;;;;;;;;;;;19.50;91.20;;;;;;5060510;28;19944;-78
2022/06/12 14:22:51;;;;;;;;;;;19.40;91.00;;;;;;5077022;28;19934;-77
2022/06/12 14:25:24;;;;;;;;;;;19.40;91.20;;;;;;5058855;28;20000;-78
2022/06/12 14:27:58;;;;;;;;;;;19.60;91.10;;;;;;5085982;28;20233;-78
2022/06/12 14:30:31;;;;;;;;;;;19.50;91.50;;;;;;5066454;28;19916;-78
2022/06/12 14:32:57;;;;;;;;;;;19.50;91.30;;;;;;5066131;28;19962;-78
2022/06/12 14:35:23;;;;;;;;;;;19.60;91.40;;;;;;5066272;28;19916;-78
2022/06/12 14:37:48;;;;;;;;;;;20.10;91.30;;;;;;5078536;28;19920;-79
2022/06/12 14:40:33;;;;;;;;;;;20.60;90.40;;;;;;5083945;28;19924;-78
2022/06/12 14:42:58;;;;;;;;;;;21.70;88.00;;;;;;5081464;28;19951;-79
2022/06/12 14:45:24;;;;;;;;;;;22.60;83.40;;;;;;5068335;28;19939;-78
2022/06/12 14:47:50;;;;;;;;;;;21.90;85.00;;;;;;5068874;28;19923;-78
2022/06/12 14:50:16;;;;;;;;;;;20.90;87.50;;;;;;5058080;28;19941;-78
2022/06/12 14:52:41;;;;;;;;;;;20.40;89.30;;;;;;5079297;28;19916;-80
2022/06/12 14:55:08;;;;;;;;;;;20.40;90.10;;;;;;5080296;28;20323;-77
2022/06/12 14:57:35;;;;;;;;;;;20.90;88.50;;;;;;5052323;28;19921;-79
2022/06/12 15:00:01;;;;;;;;;;;21.10;87.00;;;;;;5077356;28;20019;-78
2022/06/12 15:02:28;;;;;;;;;;;21.00;87.00;;;;;;5079010;28;19912;-78